Stations météo

Publicité
Logan Botanic Garden, Grande-Bretagne (99193): Température de l'air & dewpoint: 21.05.2019 04:00:00 - 27.05.2019 04:00:00 (BST)Logan Botanic Garden, Grande-Bretagne (99193): Température de l'air -20cm: 21.05.2019 04:00:00 - 27.05.2019 04:00:00 (BST)Logan Botanic Garden, Grande-Bretagne (99193): Quantités de précipitations: 21.05.2019 04:00:00 - 27.05.2019 04:00:00 (BST)
Date & Time tt [°C] td [°C] tt -20cm [°C] rr [mm]
27.05.2019 04:00:00 10,5 8,3 - 0,0
27.05.2019 03:00:00 10,2 8,3 - 0,0
27.05.2019 02:00:00 10,1 8,5 - 0,0
27.05.2019 01:00:00 11,0 8,2 - 0,0
27.05.2019 00:00:00 10,9 8,1 - 0,0
26.05.2019 23:00:00 11,2 8,1 - 0,0
26.05.2019 22:00:00 11,0 8,8 - 0,2
26.05.2019 21:00:00 11,4 8,7 - 0,0
26.05.2019 20:00:00 11,9 8,4 - 0,0
26.05.2019 19:00:00 13,3 8,4 - 0,0
26.05.2019 18:00:00 14,1 8,2 - 0,0
26.05.2019 17:00:00 13,8 8,8 - 0,0
26.05.2019 16:00:00 13,2 9,0 - 0,0
26.05.2019 15:00:00 12,5 9,7 - 0,0
26.05.2019 14:00:00 12,7 10,3 - 0,0
26.05.2019 13:00:00 12,7 9,7 - 0,0
26.05.2019 12:00:00 14,2 9,4 - 0,0
26.05.2019 11:00:00 14,1 10,4 - 0,0
26.05.2019 10:00:00 13,2 11,6 10,9 0,0
26.05.2019 09:00:00 13,1 12,2 - 0,0
26.05.2019 08:00:00 13,2 12,6 - 0,0
26.05.2019 07:00:00 11,8 11,8 - 0,6
26.05.2019 06:00:00 12,0 12,0 - 3,0
26.05.2019 05:00:00 11,8 11,8 - 0,4
26.05.2019 04:00:00 11,7 11,6 - 1,4
26.05.2019 03:00:00 12,0 11,8 - 0,6
26.05.2019 02:00:00 11,8 11,7 - 2,6
26.05.2019 01:00:00 12,3 11,9 - 0,8
26.05.2019 00:00:00 12,9 11,8 - 0,0
25.05.2019 23:00:00 13,8 12,5 - 0,0
25.05.2019 22:00:00 13,9 13,1 - 0,0
25.05.2019 21:00:00 12,5 11,5 - 0,0
25.05.2019 20:00:00 12,7 11,9 - 0,0
25.05.2019 19:00:00 12,3 11,6 - 0,0
25.05.2019 18:00:00 12,1 11,3 - 0,0
25.05.2019 17:00:00 11,9 11,3 - 0,0
25.05.2019 16:00:00 11,2 10,9 - 0,0
25.05.2019 15:00:00 11,0 10,7 - 0,0
25.05.2019 14:00:00 11,4 11,0 - 0,0
25.05.2019 13:00:00 11,3 10,7 - 0,0
25.05.2019 12:00:00 10,5 8,8 - 0,0
25.05.2019 11:00:00 10,4 8,5 - 0,0
25.05.2019 10:00:00 10,5 7,3 13,0 0,0
25.05.2019 09:00:00 10,1 7,2 - 0,0
25.05.2019 08:00:00 10,0 7,7 - 0,0
25.05.2019 07:00:00 9,5 7,3 - 0,0
25.05.2019 06:00:00 9,0 6,9 - 0,0
25.05.2019 05:00:00 8,2 6,5 - 0,0
25.05.2019 04:00:00 8,1 6,1 - 0,0
25.05.2019 03:00:00 8,5 6,5 - 0,0
25.05.2019 02:00:00 8,6 6,2 - 0,0
25.05.2019 01:00:00 8,5 6,2 - 0,0
25.05.2019 00:00:00 8,8 6,4 - 0,0
24.05.2019 23:00:00 8,7 6,1 - 0,0
24.05.2019 22:00:00 9,0 6,0 - 0,0
24.05.2019 21:00:00 10,2 6,7 - 0,0
24.05.2019 20:00:00 11,5 6,7 - 0,0
24.05.2019 19:00:00 12,0 7,9 - 0,0
24.05.2019 18:00:00 12,4 8,5 - 0,0
24.05.2019 17:00:00 12,3 8,1 - 0,0
24.05.2019 16:00:00 12,7 8,3 - 0,0
24.05.2019 15:00:00 13,4 8,8 - 0,0
24.05.2019 14:00:00 13,4 8,3 - 0,0
24.05.2019 13:00:00 12,8 8,3 - 0,0
24.05.2019 12:00:00 12,9 8,0 - 0,0
24.05.2019 11:00:00 12,6 8,2 - 0,0
24.05.2019 10:00:00 11,3 8,4 13,2 0,0
24.05.2019 09:00:00 10,8 8,6 - 0,0
24.05.2019 08:00:00 10,5 8,6 - 0,0
24.05.2019 07:00:00 10,5 8,6 - 0,0
24.05.2019 06:00:00 8,9 7,8 - 0,0
24.05.2019 05:00:00 9,0 7,9 - 0,0
24.05.2019 04:00:00 9,0 7,6 - 0,0
24.05.2019 03:00:00 9,4 7,8 - 0,0
24.05.2019 02:00:00 9,3 8,3 - 0,0
24.05.2019 01:00:00 7,8 7,3 - 0,0
24.05.2019 00:00:00 8,5 7,6 - 0,0
23.05.2019 23:00:00 8,8 7,7 - 0,0
23.05.2019 22:00:00 8,5 6,9 - 0,0
23.05.2019 21:00:00 10,0 7,4 - 0,0
23.05.2019 20:00:00 10,7 7,0 - 0,0
23.05.2019 19:00:00 12,5 4,8 - 0,0
23.05.2019 18:00:00 13,1 5,2 - 0,0
23.05.2019 17:00:00 14,0 6,1 - 0,0
23.05.2019 16:00:00 13,1 6,6 - 0,0
23.05.2019 15:00:00 12,9 6,2 - 0,0
23.05.2019 14:00:00 12,7 4,7 - 0,0
23.05.2019 13:00:00 12,1 5,4 - 0,0
23.05.2019 12:00:00 12,3 5,4 - 0,0
23.05.2019 11:00:00 12,0 6,0 - 0,0
23.05.2019 10:00:00 11,1 6,8 13,0 0,0
23.05.2019 09:00:00 11,0 7,6 - 0,0
23.05.2019 08:00:00 10,2 7,2 - 0,0
23.05.2019 07:00:00 8,2 7,7 - 0,0
23.05.2019 06:00:00 6,1 5,9 - 0,0
23.05.2019 05:00:00 5,1 5,0 - 0,0
23.05.2019 04:00:00 5,4 5,2 - 0,0
23.05.2019 03:00:00 5,7 5,4 - 0,0
23.05.2019 02:00:00 6,6 6,2 - 0,0
23.05.2019 01:00:00 7,4 6,9 - 0,0
23.05.2019 00:00:00 7,3 6,7 - 0,0
22.05.2019 23:00:00 7,2 6,3 - 0,0
22.05.2019 22:00:00 7,7 6,2 - 0,0
22.05.2019 21:00:00 8,9 6,4 - 0,0
22.05.2019 20:00:00 10,5 6,0 - 0,0
22.05.2019 19:00:00 11,4 7,0 - 0,0
22.05.2019 18:00:00 11,7 6,3 - 0,0
22.05.2019 17:00:00 13,2 6,1 - 0,0
22.05.2019 16:00:00 12,9 5,4 - 0,0
22.05.2019 15:00:00 12,6 5,6 - 0,0
22.05.2019 14:00:00 13,1 6,4 - 0,0
22.05.2019 13:00:00 12,4 6,6 - 0,0
22.05.2019 12:00:00 11,4 7,5 - 0,0
22.05.2019 11:00:00 11,0 7,0 - 0,0
22.05.2019 10:00:00 11,4 7,1 12,9 0,0
22.05.2019 09:00:00 11,1 5,6 - 0,0
22.05.2019 08:00:00 9,9 6,7 - 0,0
22.05.2019 07:00:00 8,5 6,9 - 0,0
22.05.2019 06:00:00 6,4 5,8 - 0,0
22.05.2019 05:00:00 4,9 4,3 - 0,0
22.05.2019 04:00:00 5,9 5,0 - 0,0
22.05.2019 03:00:00 6,9 5,8 - 0,0
22.05.2019 02:00:00 7,9 7,0 - 0,0
22.05.2019 01:00:00 7,8 7,2 - 0,0
22.05.2019 00:00:00 8,4 7,5 - 0,0
21.05.2019 23:00:00 8,3 6,9 - 0,0
21.05.2019 22:00:00 9,5 7,4 - 0,0
21.05.2019 21:00:00 9,9 6,7 - 0,0
21.05.2019 20:00:00 10,8 6,8 - 0,0
21.05.2019 19:00:00 12,2 6,9 - 0,0
21.05.2019 18:00:00 13,4 7,0 - 0,0
21.05.2019 17:00:00 13,8 6,1 - 0,0
21.05.2019 16:00:00 13,7 5,9 - 0,0
21.05.2019 15:00:00 13,9 6,0 - 0,0
21.05.2019 14:00:00 13,4 7,9 - 0,0
21.05.2019 13:00:00 13,1 7,8 - 0,0
21.05.2019 12:00:00 12,8 7,9 - 0,0
21.05.2019 11:00:00 11,8 8,4 - 0,0
21.05.2019 10:00:00 11,5 8,5 12,7 0,0
21.05.2019 09:00:00 10,9 8,3 - 0,0
21.05.2019 08:00:00 10,3 8,2 - 0,0
21.05.2019 07:00:00 9,8 8,5 - 0,0
21.05.2019 06:00:00 9,4 8,2 - 0,0
21.05.2019 05:00:00 9,2 8,3 - 0,0
21.05.2019 04:00:00 9,3 8,7 - 0,0

tt = Température de l'air
td = dewpoint
tt -20cm = Température de l'air -20cm
rr = Quantités de précipitations

stations d'obs. à proximité